Terminal Aerodrome Forecast
Issued by NWS Columbia, SC

Home | Current Version | Previous Version | Text Only | Print | Product List | Glossary On
Versions: 1 2 3 4 5 6 7 8 9 10 11 12 13 14 15 16 17 18 19 20 21 22 23 24 25 26 27 28 29 30 31 32 33 34 35 36 37 38 39 40 41 42 43 44
961
FTUS42 KCAE 222141 AAB
TAFAGS
TAF AMD
KAGS 222141Z 2222/2318 10006KT P6SM VCSH SCT029 BKN035 OVC050
      TEMPO 2222/2224 6SM -RA BR SCT007 BKN025 OVC040
     FM230000 10007KT P6SM VCSH SCT030 BKN120
     FM230800 09005KT P6SM VCSH OVC015
     FM231400 15008KT 4SM -SHRA BR OVC015=

USA.gov is the U.S. government's official web portal to all federal, state and local government web resources and services.